createdAt,value
2022-09-06T00:01:58.644Z,58.05
2022-09-06T00:06:00.415Z,57.09
2022-09-06T00:10:01.056Z,56.59
2022-09-06T00:14:00.618Z,57.55
2022-09-06T00:18:02.783Z,57.54
2022-09-06T00:22:04.196Z,58.09
2022-09-06T00:26:05.729Z,58.72
2022-09-06T00:30:06.520Z,59.80
2022-09-06T00:34:06.148Z,61.48
2022-09-06T00:38:07.802Z,62.59
2022-09-06T00:42:10.234Z,63.54
2022-09-06T00:46:12.531Z,63.78
2022-09-06T00:50:17.418Z,63.66
2022-09-06T00:54:19.179Z,63.26
2022-09-06T00:58:18.797Z,63.83
2022-09-06T01:02:19.788Z,64.04
2022-09-06T01:06:26.477Z,63.81
2022-09-06T01:10:57.378Z,63.66
2022-09-06T01:15:09.718Z,62.65
2022-09-06T01:20:09.099Z,62.32
2022-09-06T01:24:55.101Z,62.13
2022-09-06T01:28:57.286Z,62.29
2022-09-06T01:33:02.299Z,62.16
2022-09-06T01:37:10.281Z,62.31
2022-09-06T01:41:10.884Z,62.21
2022-09-06T01:45:16.898Z,61.36
2022-09-06T01:49:29.972Z,61.70
2022-09-06T01:53:48.234Z,62.46
2022-09-06T01:57:59.348Z,62.56
2022-09-06T02:02:07.702Z,63.29
2022-09-06T02:06:11.805Z,64.34
2022-09-06T02:10:18.392Z,65.23
2022-09-06T02:14:22.698Z,65.70
2022-09-06T02:18:31.754Z,64.96
2022-09-06T02:22:35.574Z,64.84
2022-09-06T02:26:39.350Z,65.67
2022-09-06T02:30:44.542Z,66.10
2022-09-06T02:34:47.475Z,65.90
2022-09-06T02:38:48.241Z,64.99
2022-09-06T02:42:47.943Z,64.42
2022-09-06T02:46:47.251Z,64.81
2022-09-06T02:50:49.129Z,63.98
2022-09-06T02:54:48.817Z,62.97
2022-09-06T02:58:49.594Z,62.56
2022-09-06T03:02:49.387Z,62.71
2022-09-06T03:06:51.297Z,63.59
2022-09-06T03:10:51.706Z,64.36
2022-09-06T03:14:54.820Z,64.90
2022-09-06T03:18:54.886Z,66.38
2022-09-06T03:22:56.705Z,67.50
2022-09-06T03:26:56.443Z,68.90
2022-09-06T03:30:56.354Z,70.35
2022-09-06T03:34:55.646Z,71.74
2022-09-06T03:38:57.967Z,72.65
2022-09-06T03:42:57.734Z,72.54
2022-09-06T03:46:58.439Z,72.76
2022-09-06T03:50:59.764Z,73.19
2022-09-06T03:55:02.545Z,73.49
2022-09-06T03:59:02.388Z,73.27
2022-09-06T04:03:02.093Z,72.65
2022-09-06T04:07:01.845Z,70.72
2022-09-06T04:11:03.921Z,69.56
2022-09-06T04:15:03.896Z,69.30
2022-09-06T04:19:03.970Z,69.65
2022-09-06T04:23:03.798Z,70.34
2022-09-06T04:27:06.027Z,71.29
2022-09-06T04:31:06.796Z,72.10
2022-09-06T04:35:07.318Z,72.65
2022-09-06T04:39:06.986Z,73.29
2022-09-06T04:43:08.850Z,73.73
2022-09-06T04:47:14.319Z,74.25
2022-09-06T04:51:13.984Z,74.42
2022-09-06T04:55:13.563Z,73.91
2022-09-06T04:59:15.325Z,73.91
2022-09-06T05:03:14.911Z,73.37
2022-09-06T05:07:15.278Z,72.04
2022-09-06T05:11:15.108Z,70.68
2022-09-06T05:15:17.147Z,69.59
2022-09-06T05:19:16.849Z,68.01
2022-09-06T05:23:16.501Z,67.46
2022-09-06T05:27:16.205Z,67.29
2022-09-06T05:31:28.304Z,66.61
2022-09-06T05:35:28.087Z,68.58
2022-09-06T05:39:27.924Z,68.16
2022-09-06T05:43:27.658Z,67.75
2022-09-06T05:47:30.879Z,67.06
2022-09-06T05:51:30.835Z,66.90
2022-09-06T05:55:30.387Z,65.15
2022-09-06T05:59:30.282Z,64.06
2022-09-06T06:03:32.059Z,63.97
2022-09-06T06:07:31.718Z,64.83
2022-09-06T06:11:33.503Z,65.49
2022-09-06T06:15:33.442Z,66.04
2022-09-06T06:19:35.276Z,68.11
2022-09-06T06:23:37.560Z,69.34
2022-09-06T06:27:37.498Z,69.90
2022-09-06T06:31:39.884Z,69.35
2022-09-06T06:35:41.810Z,70.31
2022-09-06T06:39:41.838Z,70.47
2022-09-06T06:43:41.291Z,70.79
2022-09-06T06:47:41.393Z,70.86
2022-09-06T06:51:43.238Z,70.35
2022-09-06T06:55:47.138Z,69.56
2022-09-06T06:59:46.990Z,69.51
2022-09-06T07:03:46.858Z,67.75
2022-09-06T07:07:48.563Z,65.51
2022-09-06T07:11:49.201Z,63.82
2022-09-06T07:15:49.153Z,63.53
2022-09-06T07:24:15.793Z,59.41
2022-09-06T07:28:23.703Z,62.14
2022-09-06T07:32:38.899Z,60.09
2022-09-06T07:36:39.092Z,57.25
2022-09-06T07:40:58.678Z,56.53
2022-09-06T07:45:27.130Z,57.74
2022-09-06T07:54:35.863Z,53.09
2022-09-06T07:58:43.878Z,54.66
2022-09-06T08:02:43.631Z,52.09
2022-09-06T08:11:45.109Z,50.97
2022-09-06T08:15:47.552Z,50.34
2022-09-06T08:19:47.984Z,50.13
2022-09-06T08:23:54.524Z,47.83
2022-09-06T08:27:58.483Z,43.92
2022-09-06T08:32:07.137Z,46.74
2022-09-06T08:36:10.732Z,46.06
2022-09-06T08:40:23.561Z,45.27
2022-09-06T08:49:12.600Z,41.22
2022-09-06T08:53:20.683Z,40.03
2022-09-06T08:58:33.080Z,42.63
2022-09-06T09:02:46.991Z,41.17
2022-09-06T09:06:52.275Z,41.53
2022-09-06T09:10:56.920Z,40.69
2022-09-06T09:15:42.141Z,38.12
2022-09-06T09:19:44.174Z,39.74
2022-09-06T09:24:09.768Z,39.00
2022-09-06T09:28:19.461Z,38.07
2022-09-06T09:32:31.540Z,38.02
2022-09-06T09:36:31.156Z,38.11
2022-09-06T09:40:55.141Z,39.22
2022-09-06T09:45:32.848Z,38.01
2022-09-06T09:49:37.434Z,37.20
2022-09-06T09:54:03.440Z,36.46
2022-09-06T09:58:09.623Z,36.45
2022-09-06T10:02:20.789Z,37.70
2022-09-06T10:10:52.332Z,37.56
2022-09-06T10:14:57.700Z,37.02
2022-09-06T10:18:57.174Z,38.63
2022-09-06T10:23:02.960Z,36.58
2022-09-06T10:27:03.728Z,35.94
2022-09-06T10:31:49.639Z,34.98
2022-09-06T10:35:49.127Z,35.54
2022-09-06T10:39:56.526Z,37.23
2022-09-06T10:44:07.144Z,37.28
2022-09-06T10:48:18.024Z,36.18
2022-09-06T10:52:21.771Z,37.70
2022-09-06T10:56:26.262Z,35.66
2022-09-06T11:00:26.832Z,35.82
2022-09-06T11:09:01.531Z,37.71
2022-09-06T11:13:05.459Z,39.30
2022-09-06T11:17:09.013Z,36.85
2022-09-06T11:21:43.872Z,39.56
2022-09-06T11:26:21.116Z,38.43
2022-09-06T11:30:22.574Z,38.31
2022-09-06T11:34:29.006Z,38.44
2022-09-06T11:38:31.078Z,38.89
2022-09-06T11:43:00.652Z,38.06
2022-09-06T11:47:02.051Z,39.93
2022-09-06T11:51:06.335Z,38.88
2022-09-06T11:55:13.492Z,38.53
2022-09-06T11:59:27.798Z,39.48
2022-09-06T12:08:37.583Z,39.87
2022-09-06T12:12:46.074Z,39.68
2022-09-06T12:17:25.627Z,37.41
2022-09-06T12:21:36.468Z,38.34
2022-09-06T12:25:57.566Z,40.56
2022-09-06T12:30:01.483Z,37.89
2022-09-06T12:34:07.601Z,36.81
2022-09-06T12:38:09.049Z,37.93
2022-09-06T12:42:14.715Z,37.51
2022-09-06T12:46:16.525Z,37.21
2022-09-06T12:50:19.460Z,37.33
2022-09-06T12:54:24.635Z,37.34
2022-09-06T12:58:30.281Z,35.83
2022-09-06T13:02:43.194Z,35.45
2022-09-06T13:06:46.410Z,35.66
2022-09-06T13:10:48.933Z,35.64
2022-09-06T13:14:48.221Z,35.82
2022-09-06T13:18:50.112Z,36.02
2022-09-06T13:22:51.733Z,36.06
2022-09-06T13:26:51.988Z,35.90
2022-09-06T13:31:05.865Z,35.71
2022-09-06T13:35:09.815Z,35.77
2022-09-06T13:39:31.100Z,36.25
2022-09-06T13:43:33.041Z,36.13
2022-09-06T13:47:33.910Z,35.25
2022-09-06T13:51:36.399Z,35.68
2022-09-06T13:55:36.335Z,35.42
2022-09-06T13:59:35.889Z,34.88
2022-09-06T14:03:35.985Z,35.88
2022-09-06T14:07:37.949Z,35.62
2022-09-06T14:11:37.678Z,36.30
2022-09-06T14:15:36.879Z,35.71
2022-09-06T14:19:36.570Z,36.36
2022-09-06T14:23:38.387Z,35.34
2022-09-06T14:27:37.999Z,35.29
2022-09-06T14:31:38.570Z,35.22
2022-09-06T14:35:38.114Z,34.01
2022-09-06T14:39:52.557Z,35.49
2022-09-06T14:44:11.393Z,35.08
2022-09-06T14:48:10.989Z,34.97
2022-09-06T14:52:10.601Z,34.88
2022-09-06T14:56:13.799Z,34.20
2022-09-06T15:00:15.180Z,35.59
2022-09-06T15:04:14.756Z,34.80
2022-09-06T15:08:14.701Z,37.20
2022-09-06T15:12:16.707Z,37.39
2022-09-06T15:16:16.674Z,36.59
2022-09-06T15:20:19.703Z,36.81
2022-09-06T15:24:19.645Z,37.09
2022-09-06T15:28:22.196Z,36.45
2022-09-06T15:32:22.263Z,36.41
2022-09-06T15:36:22.367Z,36.73
2022-09-06T15:40:24.049Z,37.34
2022-09-06T15:44:26.037Z,37.70
2022-09-06T15:48:26.257Z,36.27
2022-09-06T15:52:25.898Z,37.19
2022-09-06T15:56:25.561Z,37.91
2022-09-06T16:00:28.652Z,36.82
2022-09-06T16:04:28.325Z,36.66
2022-09-06T16:08:28.333Z,37.24
2022-09-06T16:12:28.184Z,37.94
2022-09-06T16:16:33.097Z,38.00
2022-09-06T16:20:33.534Z,37.53
2022-09-06T16:24:33.450Z,37.85
2022-09-06T16:28:36.482Z,38.21
2022-09-06T16:32:38.420Z,38.19
2022-09-06T16:36:38.343Z,38.27
2022-09-06T16:40:38.682Z,38.85
2022-09-06T16:44:38.635Z,40.11
2022-09-06T16:48:43.266Z,40.63
2022-09-06T16:52:43.036Z,40.66
2022-09-06T16:56:42.893Z,40.84
2022-09-06T17:00:50.177Z,42.14
2022-09-06T17:04:53.577Z,41.76
2022-09-06T17:08:54.148Z,43.12
2022-09-06T17:12:55.763Z,44.00
2022-09-06T17:17:10.516Z,45.36
2022-09-06T17:21:12.938Z,46.98
2022-09-06T17:25:14.401Z,48.18
2022-09-06T17:29:14.080Z,49.16
2022-09-06T17:33:16.683Z,49.39
2022-09-06T17:37:18.609Z,50.38
2022-09-06T17:41:23.820Z,50.95
2022-09-06T17:45:24.996Z,51.54
2022-09-06T17:49:29.893Z,52.06
2022-09-06T17:53:34.137Z,52.46
2022-09-06T17:57:34.151Z,52.90
2022-09-06T18:01:35.992Z,52.83
2022-09-06T18:05:39.377Z,52.60
2022-09-06T18:09:41.594Z,53.13
2022-09-06T18:13:42.814Z,53.48
2022-09-06T18:17:44.039Z,52.60
2022-09-06T18:21:44.089Z,53.21
2022-09-06T18:25:46.061Z,53.67
2022-09-06T18:29:45.904Z,53.62
2022-09-06T18:33:45.891Z,53.93
2022-09-06T18:37:45.623Z,53.95
2022-09-06T18:42:06.569Z,53.89
2022-09-06T18:46:08.791Z,54.25
2022-09-06T18:50:09.611Z,54.67
2022-09-06T18:54:09.496Z,54.98
2022-09-06T18:58:12.523Z,54.99
2022-09-06T19:02:12.742Z,55.13
2022-09-06T19:06:13.782Z,56.15
2022-09-06T19:10:13.526Z,56.58
2022-09-06T19:14:15.680Z,56.53
2022-09-06T19:18:15.612Z,56.79
2022-09-06T19:22:15.439Z,56.68
2022-09-06T19:26:17.592Z,56.51
2022-09-06T19:30:19.779Z,55.81
2022-09-06T19:34:19.561Z,53.78
2022-09-06T19:38:18.881Z,54.74
2022-09-06T19:42:18.739Z,54.96
2022-09-06T19:46:22.091Z,55.46
2022-09-06T19:50:22.015Z,55.05
2022-09-06T19:54:22.218Z,55.79
2022-09-06T19:58:22.306Z,56.55
2022-09-06T20:02:24.985Z,56.45
2022-09-06T20:06:25.484Z,57.43
2022-09-06T20:10:25.454Z,58.06
2022-09-06T20:14:28.819Z,58.27
2022-09-06T20:18:37.942Z,57.85
2022-09-06T20:22:52.260Z,57.64
2022-09-06T20:27:01.403Z,57.76
2022-09-06T20:31:07.632Z,58.20
2022-09-06T20:35:17.601Z,58.88
2022-09-06T20:39:22.195Z,59.72
2022-09-06T20:43:21.498Z,60.47
2022-09-06T20:47:24.488Z,60.74
2022-09-06T20:51:40.191Z,60.76
2022-09-06T20:55:47.394Z,60.86
2022-09-06T21:00:00.193Z,61.19
2022-09-06T21:04:14.011Z,60.81
2022-09-06T21:08:21.476Z,60.81
2022-09-06T21:12:41.350Z,60.79
2022-09-06T21:16:44.769Z,60.89
2022-09-06T21:21:37.690Z,60.61
2022-09-06T21:25:58.201Z,60.67
2022-09-06T21:31:08.188Z,61.14
2022-09-06T21:40:13.884Z,61.06
2022-09-06T21:44:17.230Z,61.03
2022-09-06T21:48:28.367Z,61.24
2022-09-06T21:52:40.420Z,61.18
2022-09-06T21:57:13.910Z,61.67
2022-09-06T22:01:23.366Z,61.39
2022-09-06T22:05:39.412Z,61.64
2022-09-06T22:10:03.287Z,61.07
2022-09-06T22:14:13.871Z,61.36
2022-09-06T22:18:23.208Z,61.82
2022-09-06T22:22:28.694Z,62.10
2022-09-06T22:26:30.342Z,61.97
2022-09-06T22:31:15.210Z,61.80
2022-09-06T22:35:22.923Z,61.90
2022-09-06T22:39:23.371Z,62.17
2022-09-06T22:43:33.995Z,62.17
2022-09-06T22:47:45.187Z,61.86
2022-09-06T22:52:03.803Z,61.81
2022-09-06T22:56:04.989Z,62.14
2022-09-06T23:00:09.381Z,62.28
2022-09-06T23:04:10.849Z,62.50
2022-09-06T23:08:21.917Z,62.61
2022-09-06T23:12:28.688Z,62.80
2022-09-06T23:16:38.195Z,63.14
2022-09-06T23:20:43.094Z,63.21
2022-09-06T23:24:46.067Z,63.25
2022-09-06T23:28:56.179Z,63.53
2022-09-06T23:32:56.272Z,63.63
2022-09-06T23:36:59.712Z,63.64
2022-09-06T23:41:01.800Z,63.94
2022-09-06T23:45:15.198Z,64.29
2022-09-06T23:49:18.490Z,63.92
2022-09-06T23:53:19.311Z,63.24
2022-09-06T23:57:21.350Z,62.58
